sensor_id;sensor_type;location;lat;lon;timestamp;temperature;humidity
48575;DHT22;34352;51.084;3.712;2023-06-14T00:01:45;21.20;1.00
48575;DHT22;34352;51.084;3.712;2023-06-14T00:04:13;21.20;1.00
48575;DHT22;34352;51.084;3.712;2023-06-14T00:06:39;21.20;1.00
48575;DHT22;34352;51.084;3.712;2023-06-14T00:09:05;21.20;1.00
48575;DHT22;34352;51.084;3.712;2023-06-14T00:11:33;21.10;1.00
48575;DHT22;34352;51.084;3.712;2023-06-14T00:13:59;21.10;1.00
48575;DHT22;34352;51.084;3.712;2023-06-14T00:16:25;21.30;1.00
48575;DHT22;34352;51.084;3.712;2023-06-14T00:18:50;21.30;1.00
48575;DHT22;34352;51.084;3.712;2023-06-14T00:21:17;21.20;1.00
48575;DHT22;34352;51.084;3.712;2023-06-14T00:23:43;21.20;1.00
48575;DHT22;34352;51.084;3.712;2023-06-14T00:26:08;21.20;1.00
48575;DHT22;34352;51.084;3.712;2023-06-14T00:28:34;21.30;1.00
48575;DHT22;34352;51.084;3.712;2023-06-14T00:31:00;21.20;1.00
48575;DHT22;34352;51.084;3.712;2023-06-14T00:33:25;21.20;1.00
48575;DHT22;34352;51.084;3.712;2023-06-14T00:35:51;21.20;1.00
48575;DHT22;34352;51.084;3.712;2023-06-14T00:38:20;21.20;1.00
48575;DHT22;34352;51.084;3.712;2023-06-14T00:40:46;21.20;1.00
48575;DHT22;34352;51.084;3.712;2023-06-14T00:43:12;21.20;1.00
48575;DHT22;34352;51.084;3.712;2023-06-14T00:45:38;21.20;1.00
48575;DHT22;34352;51.084;3.712;2023-06-14T00:48:05;21.10;1.00
48575;DHT22;34352;51.084;3.712;2023-06-14T00:50:35;21.10;1.00
48575;DHT22;34352;51.084;3.712;2023-06-14T00:53:02;21.00;1.00
48575;DHT22;34352;51.084;3.712;2023-06-14T00:55:28;21.00;1.00
48575;DHT22;34352;51.084;3.712;2023-06-14T00:57:55;21.00;1.00
48575;DHT22;34352;51.084;3.712;2023-06-14T01:00:21;21.00;1.00
48575;DHT22;34352;51.084;3.712;2023-06-14T01:02:47;21.00;1.00
48575;DHT22;34352;51.084;3.712;2023-06-14T01:05:14;20.80;1.00
48575;DHT22;34352;51.084;3.712;2023-06-14T01:13:12;20.70;1.00
48575;DHT22;34352;51.084;3.712;2023-06-14T01:15:39;20.50;1.00
48575;DHT22;34352;51.084;3.712;2023-06-14T01:18:05;20.50;1.00
48575;DHT22;34352;51.084;3.712;2023-06-14T01:20:32;20.50;1.00
48575;DHT22;34352;51.084;3.712;2023-06-14T01:23:03;20.50;1.00
48575;DHT22;34352;51.084;3.712;2023-06-14T01:25:28;20.50;1.00
48575;DHT22;34352;51.084;3.712;2023-06-14T01:28:00;20.40;1.00
48575;DHT22;34352;51.084;3.712;2023-06-14T01:30:29;20.40;1.00
48575;DHT22;34352;51.084;3.712;2023-06-14T01:32:56;20.40;1.00
48575;DHT22;34352;51.084;3.712;2023-06-14T01:35:23;20.40;1.00
48575;DHT22;34352;51.084;3.712;2023-06-14T01:37:49;20.40;1.00
48575;DHT22;34352;51.084;3.712;2023-06-14T01:40:16;20.40;1.00
48575;DHT22;34352;51.084;3.712;2023-06-14T01:42:44;20.40;1.00
48575;DHT22;34352;51.084;3.712;2023-06-14T01:45:11;20.40;1.00
48575;DHT22;34352;51.084;3.712;2023-06-14T01:47:37;20.30;1.00
48575;DHT22;34352;51.084;3.712;2023-06-14T01:50:04;20.40;1.00
48575;DHT22;34352;51.084;3.712;2023-06-14T01:52:31;20.40;1.00
48575;DHT22;34352;51.084;3.712;2023-06-14T01:54:57;20.40;1.00
48575;DHT22;34352;51.084;3.712;2023-06-14T01:57:24;20.40;1.00
48575;DHT22;34352;51.084;3.712;2023-06-14T01:59:50;20.40;1.00
48575;DHT22;34352;51.084;3.712;2023-06-14T02:02:16;20.40;1.00
48575;DHT22;34352;51.084;3.712;2023-06-14T02:04:42;20.30;1.00
48575;DHT22;34352;51.084;3.712;2023-06-14T02:07:08;20.20;1.00
48575;DHT22;34352;51.084;3.712;2023-06-14T02:09:34;20.20;1.00
48575;DHT22;34352;51.084;3.712;2023-06-14T02:12:01;20.20;1.00
48575;DHT22;34352;51.084;3.712;2023-06-14T02:14:27;20.10;1.00
48575;DHT22;34352;51.084;3.712;2023-06-14T02:16:53;20.10;1.00
48575;DHT22;34352;51.084;3.712;2023-06-14T02:19:19;20.00;1.00
48575;DHT22;34352;51.084;3.712;2023-06-14T02:21:46;20.00;1.00
48575;DHT22;34352;51.084;3.712;2023-06-14T02:24:13;19.90;1.00
48575;DHT22;34352;51.084;3.712;2023-06-14T02:26:38;19.90;1.00
48575;DHT22;34352;51.084;3.712;2023-06-14T02:29:05;19.80;1.00
48575;DHT22;34352;51.084;3.712;2023-06-14T02:31:31;19.80;1.00
48575;DHT22;34352;51.084;3.712;2023-06-14T02:33:57;19.70;1.00
48575;DHT22;34352;51.084;3.712;2023-06-14T02:36:24;19.70;1.00
48575;DHT22;34352;51.084;3.712;2023-06-14T02:38:50;19.70;1.00
48575;DHT22;34352;51.084;3.712;2023-06-14T02:41:16;19.70;1.00
48575;DHT22;34352;51.084;3.712;2023-06-14T02:43:41;19.70;1.00
48575;DHT22;34352;51.084;3.712;2023-06-14T02:46:07;19.50;1.00
48575;DHT22;34352;51.084;3.712;2023-06-14T02:48:33;19.60;1.00
48575;DHT22;34352;51.084;3.712;2023-06-14T02:50:58;19.60;1.00
48575;DHT22;34352;51.084;3.712;2023-06-14T02:53:24;19.60;1.00
48575;DHT22;34352;51.084;3.712;2023-06-14T02:55:50;19.60;1.00
48575;DHT22;34352;51.084;3.712;2023-06-14T02:58:17;19.50;1.00
48575;DHT22;34352;51.084;3.712;2023-06-14T03:00:43;19.50;1.00
48575;DHT22;34352;51.084;3.712;2023-06-14T03:03:09;19.50;1.00
48575;DHT22;34352;51.084;3.712;2023-06-14T03:05:41;19.50;1.00
48575;DHT22;34352;51.084;3.712;2023-06-14T03:08:11;19.40;1.00
48575;DHT22;34352;51.084;3.712;2023-06-14T03:10:42;19.40;1.00
48575;DHT22;34352;51.084;3.712;2023-06-14T03:13:08;19.40;1.00
48575;DHT22;34352;51.084;3.712;2023-06-14T03:15:36;19.40;1.00
48575;DHT22;34352;51.084;3.712;2023-06-14T03:18:01;19.40;1.00
48575;DHT22;34352;51.084;3.712;2023-06-14T03:20:29;19.40;1.00
48575;DHT22;34352;51.084;3.712;2023-06-14T03:22:59;18.60;1.00
48575;DHT22;34352;51.084;3.712;2023-06-14T03:25:25;19.40;1.00
48575;DHT22;34352;51.084;3.712;2023-06-14T03:27:51;19.30;1.00
48575;DHT22;34352;51.084;3.712;2023-06-14T03:30:17;19.30;1.00
48575;DHT22;34352;51.084;3.712;2023-06-14T03:32:42;19.30;1.00
48575;DHT22;34352;51.084;3.712;2023-06-14T03:35:08;19.30;1.00
48575;DHT22;34352;51.084;3.712;2023-06-14T03:37:35;19.30;1.00
48575;DHT22;34352;51.084;3.712;2023-06-14T03:40:01;19.20;1.00
48575;DHT22;34352;51.084;3.712;2023-06-14T03:42:26;19.20;1.00
48575;DHT22;34352;51.084;3.712;2023-06-14T03:44:52;19.10;1.00
48575;DHT22;34352;51.084;3.712;2023-06-14T03:47:17;19.20;1.00
48575;DHT22;34352;51.084;3.712;2023-06-14T03:49:43;19.20;1.00
48575;DHT22;34352;51.084;3.712;2023-06-14T03:52:09;19.20;1.00
48575;DHT22;34352;51.084;3.712;2023-06-14T03:54:34;19.20;1.00
48575;DHT22;34352;51.084;3.712;2023-06-14T03:57:00;19.40;1.00
48575;DHT22;34352;51.084;3.712;2023-06-14T03:59:26;19.30;1.00
48575;DHT22;34352;51.084;3.712;2023-06-14T04:01:53;19.20;1.00
48575;DHT22;34352;51.084;3.712;2023-06-14T04:04:19;19.30;1.00
48575;DHT22;34352;51.084;3.712;2023-06-14T04:06:46;19.20;1.00
48575;DHT22;34352;51.084;3.712;2023-06-14T04:09:13;19.30;1.00
48575;DHT22;34352;51.084;3.712;2023-06-14T04:11:39;19.30;1.00
48575;DHT22;34352;51.084;3.712;2023-06-14T04:14:05;19.30;1.00
48575;DHT22;34352;51.084;3.712;2023-06-14T04:16:31;19.30;1.00
48575;DHT22;34352;51.084;3.712;2023-06-14T04:18:57;19.40;1.00
48575;DHT22;34352;51.084;3.712;2023-06-14T04:21:23;19.40;1.00
48575;DHT22;34352;51.084;3.712;2023-06-14T04:23:49;19.50;1.00
48575;DHT22;34352;51.084;3.712;2023-06-14T04:26:18;19.70;1.00
48575;DHT22;34352;51.084;3.712;2023-06-14T04:28:45;19.80;1.00
48575;DHT22;34352;51.084;3.712;2023-06-14T04:31:12;19.70;1.00
48575;DHT22;34352;51.084;3.712;2023-06-14T04:33:38;19.90;1.00
48575;DHT22;34352;51.084;3.712;2023-06-14T04:36:11;19.90;1.00
48575;DHT22;34352;51.084;3.712;2023-06-14T04:38:39;20.00;1.00
48575;DHT22;34352;51.084;3.712;2023-06-14T04:41:04;20.00;1.00
48575;DHT22;34352;51.084;3.712;2023-06-14T04:43:32;20.10;1.00
48575;DHT22;34352;51.084;3.712;2023-06-14T04:46:06;20.20;1.00
48575;DHT22;34352;51.084;3.712;2023-06-14T04:48:36;20.20;1.00
48575;DHT22;34352;51.084;3.712;2023-06-14T04:51:03;20.20;1.00
48575;DHT22;34352;51.084;3.712;2023-06-14T04:53:29;20.20;1.00
48575;DHT22;34352;51.084;3.712;2023-06-14T04:55:55;20.30;1.00
48575;DHT22;34352;51.084;3.712;2023-06-14T04:58:20;20.40;1.00
48575;DHT22;34352;51.084;3.712;2023-06-14T05:00:46;20.40;1.00
48575;DHT22;34352;51.084;3.712;2023-06-14T05:03:12;20.50;1.00
48575;DHT22;34352;51.084;3.712;2023-06-14T05:05:40;20.60;1.00
48575;DHT22;34352;51.084;3.712;2023-06-14T05:08:06;20.60;1.00
48575;DHT22;34352;51.084;3.712;2023-06-14T05:10:31;20.50;1.00
48575;DHT22;34352;51.084;3.712;2023-06-14T05:13:00;20.60;1.00
48575;DHT22;34352;51.084;3.712;2023-06-14T05:15:26;20.70;1.00
48575;DHT22;34352;51.084;3.712;2023-06-14T05:17:52;20.80;1.00
48575;DHT22;34352;51.084;3.712;2023-06-14T05:20:22;20.70;1.00
48575;DHT22;34352;51.084;3.712;2023-06-14T05:22:51;20.70;1.00
48575;DHT22;34352;51.084;3.712;2023-06-14T05:25:19;20.90;1.00
48575;DHT22;34352;51.084;3.712;2023-06-14T05:27:45;21.00;1.00
48575;DHT22;34352;51.084;3.712;2023-06-14T05:30:11;21.10;1.00
48575;DHT22;34352;51.084;3.712;2023-06-14T05:32:37;21.10;1.00
48575;DHT22;34352;51.084;3.712;2023-06-14T05:35:03;21.30;1.00
48575;DHT22;34352;51.084;3.712;2023-06-14T05:37:29;21.40;1.00
48575;DHT22;34352;51.084;3.712;2023-06-14T05:39:57;21.50;1.00
48575;DHT22;34352;51.084;3.712;2023-06-14T05:42:23;21.30;1.00
48575;DHT22;34352;51.084;3.712;2023-06-14T05:44:48;21.30;1.00
48575;DHT22;34352;51.084;3.712;2023-06-14T05:47:14;21.20;1.00
48575;DHT22;34352;51.084;3.712;2023-06-14T05:49:40;21.30;1.00
48575;DHT22;34352;51.084;3.712;2023-06-14T05:52:06;21.30;1.00
48575;DHT22;34352;51.084;3.712;2023-06-14T05:54:32;21.30;1.00
48575;DHT22;34352;51.084;3.712;2023-06-14T05:56:58;21.40;1.00
48575;DHT22;34352;51.084;3.712;2023-06-14T05:59:29;21.70;1.00
48575;DHT22;34352;51.084;3.712;2023-06-14T06:01:55;21.90;1.00
48575;DHT22;34352;51.084;3.712;2023-06-14T06:04:27;22.20;1.00
48575;DHT22;34352;51.084;3.712;2023-06-14T06:06:54;22.30;1.00
48575;DHT22;34352;51.084;3.712;2023-06-14T06:09:20;22.40;1.00
48575;DHT22;34352;51.084;3.712;2023-06-14T06:12:12;22.60;1.00
48575;DHT22;34352;51.084;3.712;2023-06-14T06:14:44;22.60;1.00
48575;DHT22;34352;51.084;3.712;2023-06-14T06:17:10;22.90;1.00
48575;DHT22;34352;51.084;3.712;2023-06-14T06:19:43;23.20;1.00
48575;DHT22;34352;51.084;3.712;2023-06-14T06:22:11;23.50;1.00
48575;DHT22;34352;51.084;3.712;2023-06-14T06:24:42;23.80;1.00
48575;DHT22;34352;51.084;3.712;2023-06-14T06:27:07;23.90;1.00
48575;DHT22;34352;51.084;3.712;2023-06-14T06:29:34;24.10;1.00
48575;DHT22;34352;51.084;3.712;2023-06-14T06:32:00;24.30;1.00
48575;DHT22;34352;51.084;3.712;2023-06-14T06:34:26;24.60;1.00
48575;DHT22;34352;51.084;3.712;2023-06-14T06:36:52;24.70;1.00
48575;DHT22;34352;51.084;3.712;2023-06-14T06:39:18;24.90;1.00
48575;DHT22;34352;51.084;3.712;2023-06-14T06:41:44;25.30;1.00
48575;DHT22;34352;51.084;3.712;2023-06-14T06:44:10;25.70;1.00
48575;DHT22;34352;51.084;3.712;2023-06-14T06:46:36;25.70;1.00
48575;DHT22;34352;51.084;3.712;2023-06-14T06:49:07;25.90;1.00
48575;DHT22;34352;51.084;3.712;2023-06-14T06:51:35;26.00;1.00
48575;DHT22;34352;51.084;3.712;2023-06-14T06:54:04;26.20;1.00
48575;DHT22;34352;51.084;3.712;2023-06-14T06:56:32;26.10;1.00
48575;DHT22;34352;51.084;3.712;2023-06-14T06:58:58;26.50;1.00
48575;DHT22;34352;51.084;3.712;2023-06-14T07:01:24;26.60;1.00
48575;DHT22;34352;51.084;3.712;2023-06-14T07:03:51;26.80;1.00
48575;DHT22;34352;51.084;3.712;2023-06-14T07:06:17;27.10;1.00
48575;DHT22;34352;51.084;3.712;2023-06-14T07:08:44;27.30;1.00
48575;DHT22;34352;51.084;3.712;2023-06-14T07:11:12;27.70;1.00
48575;DHT22;34352;51.084;3.712;2023-06-14T07:13:39;27.90;1.00
48575;DHT22;34352;51.084;3.712;2023-06-14T07:16:05;28.20;1.00
48575;DHT22;34352;51.084;3.712;2023-06-14T07:18:32;29.00;1.00
48575;DHT22;34352;51.084;3.712;2023-06-14T07:21:01;29.20;1.00
48575;DHT22;34352;51.084;3.712;2023-06-14T07:23:28;29.30;1.00
48575;DHT22;34352;51.084;3.712;2023-06-14T07:25:56;29.30;1.00
48575;DHT22;34352;51.084;3.712;2023-06-14T07:28:23;29.70;1.00
48575;DHT22;34352;51.084;3.712;2023-06-14T07:30:48;29.90;1.00
48575;DHT22;34352;51.084;3.712;2023-06-14T07:33:14;29.90;1.00
48575;DHT22;34352;51.084;3.712;2023-06-14T07:35:40;30.40;1.00
48575;DHT22;34352;51.084;3.712;2023-06-14T07:38:07;30.60;1.00
48575;DHT22;34352;51.084;3.712;2023-06-14T07:40:33;31.10;1.00
48575;DHT22;34352;51.084;3.712;2023-06-14T07:43:00;31.20;1.00
48575;DHT22;34352;51.084;3.712;2023-06-14T07:45:27;31.60;1.00
48575;DHT22;34352;51.084;3.712;2023-06-14T07:47:53;31.80;1.00
48575;DHT22;34352;51.084;3.712;2023-06-14T07:50:19;32.20;1.00
48575;DHT22;34352;51.084;3.712;2023-06-14T07:52:45;32.90;1.00
48575;DHT22;34352;51.084;3.712;2023-06-14T07:55:12;33.30;1.00
48575;DHT22;34352;51.084;3.712;2023-06-14T07:57:38;33.60;1.00
48575;DHT22;34352;51.084;3.712;2023-06-14T08:00:05;33.70;1.00
48575;DHT22;34352;51.084;3.712;2023-06-14T08:02:33;34.00;1.00
48575;DHT22;34352;51.084;3.712;2023-06-14T08:04:58;34.30;1.00
48575;DHT22;34352;51.084;3.712;2023-06-14T08:07:24;34.60;1.00
48575;DHT22;34352;51.084;3.712;2023-06-14T08:09:50;33.80;1.00
48575;DHT22;34352;51.084;3.712;2023-06-14T08:12:16;33.00;1.00
48575;DHT22;34352;51.084;3.712;2023-06-14T08:14:42;33.20;1.00
48575;DHT22;34352;51.084;3.712;2023-06-14T08:17:08;34.20;1.00
48575;DHT22;34352;51.084;3.712;2023-06-14T08:19:34;35.20;1.00
48575;DHT22;34352;51.084;3.712;2023-06-14T08:22:01;35.90;1.00
48575;DHT22;34352;51.084;3.712;2023-06-14T08:24:26;35.90;1.00
48575;DHT22;34352;51.084;3.712;2023-06-14T08:26:57;36.00;1.00
48575;DHT22;34352;51.084;3.712;2023-06-14T08:29:23;35.90;1.00
48575;DHT22;34352;51.084;3.712;2023-06-14T08:31:54;36.50;1.00
48575;DHT22;34352;51.084;3.712;2023-06-14T08:34:20;37.00;1.00
48575;DHT22;34352;51.084;3.712;2023-06-14T08:36:46;37.10;1.00
48575;DHT22;34352;51.084;3.712;2023-06-14T08:39:12;37.00;1.00
48575;DHT22;34352;51.084;3.712;2023-06-14T08:41:38;36.60;1.00
48575;DHT22;34352;51.084;3.712;2023-06-14T08:44:04;37.60;1.00
48575;DHT22;34352;51.084;3.712;2023-06-14T08:46:32;38.20;1.00
48575;DHT22;34352;51.084;3.712;2023-06-14T08:48:59;38.30;1.00
48575;DHT22;34352;51.084;3.712;2023-06-14T08:51:28;38.40;1.00
48575;DHT22;34352;51.084;3.712;2023-06-14T08:54:00;39.00;1.00
48575;DHT22;34352;51.084;3.712;2023-06-14T08:56:28;39.60;1.00
48575;DHT22;34352;51.084;3.712;2023-06-14T08:58:55;40.10;1.00
48575;DHT22;34352;51.084;3.712;2023-06-14T09:01:23;40.00;1.00
48575;DHT22;34352;51.084;3.712;2023-06-14T09:03:50;40.00;1.00
48575;DHT22;34352;51.084;3.712;2023-06-14T09:06:16;40.10;1.00
48575;DHT22;34352;51.084;3.712;2023-06-14T09:08:46;40.20;1.00
48575;DHT22;34352;51.084;3.712;2023-06-14T09:11:15;39.30;1.00
48575;DHT22;34352;51.084;3.712;2023-06-14T09:13:41;39.80;1.00
48575;DHT22;34352;51.084;3.712;2023-06-14T09:16:08;39.50;1.00
48575;DHT22;34352;51.084;3.712;2023-06-14T09:18:39;38.70;1.00
48575;DHT22;34352;51.084;3.712;2023-06-14T09:21:07;38.80;1.00
48575;DHT22;34352;51.084;3.712;2023-06-14T09:23:37;38.80;1.00
48575;DHT22;34352;51.084;3.712;2023-06-14T09:26:14;38.80;1.00
48575;DHT22;34352;51.084;3.712;2023-06-14T09:28:49;38.00;1.00
48575;DHT22;34352;51.084;3.712;2023-06-14T09:31:20;37.90;1.00
48575;DHT22;34352;51.084;3.712;2023-06-14T09:33:50;37.90;1.00
48575;DHT22;34352;51.084;3.712;2023-06-14T09:36:24;37.70;1.00
48575;DHT22;34352;51.084;3.712;2023-06-14T09:38:58;37.50;1.00
48575;DHT22;34352;51.084;3.712;2023-06-14T09:41:37;36.70;1.00
48575;DHT22;34352;51.084;3.712;2023-06-14T09:44:05;37.00;1.00
48575;DHT22;34352;51.084;3.712;2023-06-14T09:46:31;36.40;1.00
48575;DHT22;34352;51.084;3.712;2023-06-14T09:49:00;36.30;1.00
48575;DHT22;34352;51.084;3.712;2023-06-14T09:51:28;36.20;1.00
48575;DHT22;34352;51.084;3.712;2023-06-14T09:53:59;36.60;1.00
48575;DHT22;34352;51.084;3.712;2023-06-14T09:56:30;36.90;1.00
48575;DHT22;34352;51.084;3.712;2023-06-14T09:58:57;37.10;1.00
48575;DHT22;34352;51.084;3.712;2023-06-14T10:01:29;37.40;1.00
48575;DHT22;34352;51.084;3.712;2023-06-14T10:04:04;37.70;1.00
48575;DHT22;34352;51.084;3.712;2023-06-14T10:06:30;38.50;1.00
48575;DHT22;34352;51.084;3.712;2023-06-14T10:08:58;38.40;1.00
48575;DHT22;34352;51.084;3.712;2023-06-14T10:11:26;38.10;1.00
48575;DHT22;34352;51.084;3.712;2023-06-14T10:13:54;38.30;1.00
48575;DHT22;34352;51.084;3.712;2023-06-14T10:18:59;38.60;1.00
48575;DHT22;34352;51.084;3.712;2023-06-14T10:21:49;38.70;1.00
48575;DHT22;34352;51.084;3.712;2023-06-14T10:24:20;37.90;1.00
48575;DHT22;34352;51.084;3.712;2023-06-14T10:26:54;36.50;1.00
48575;DHT22;34352;51.084;3.712;2023-06-14T10:29:21;36.50;1.00
48575;DHT22;34352;51.084;3.712;2023-06-14T10:31:48;36.70;1.00
48575;DHT22;34352;51.084;3.712;2023-06-14T10:34:28;37.60;1.00
48575;DHT22;34352;51.084;3.712;2023-06-14T10:37:12;37.40;1.00
48575;DHT22;34352;51.084;3.712;2023-06-14T10:39:45;37.50;1.00
48575;DHT22;34352;51.084;3.712;2023-06-14T10:42:12;37.70;1.00
48575;DHT22;34352;51.084;3.712;2023-06-14T10:44:45;38.20;1.00
48575;DHT22;34352;51.084;3.712;2023-06-14T10:49:51;37.80;1.00
48575;DHT22;34352;51.084;3.712;2023-06-14T10:52:21;37.90;1.00
48575;DHT22;34352;51.084;3.712;2023-06-14T10:57:33;38.80;1.00
48575;DHT22;34352;51.084;3.712;2023-06-14T11:00:00;38.10;1.00
48575;DHT22;34352;51.084;3.712;2023-06-14T11:02:46;37.40;1.00
48575;DHT22;34352;51.084;3.712;2023-06-14T11:05:14;37.30;1.00
48575;DHT22;34352;51.084;3.712;2023-06-14T11:10:42;36.90;1.00
48575;DHT22;34352;51.084;3.712;2023-06-14T11:13:09;36.00;1.00
48575;DHT22;34352;51.084;3.712;2023-06-14T11:15:37;36.20;1.00
48575;DHT22;34352;51.084;3.712;2023-06-14T11:18:05;37.50;1.00
48575;DHT22;34352;51.084;3.712;2023-06-14T11:20:33;38.20;1.00
48575;DHT22;34352;51.084;3.712;2023-06-14T11:22:59;38.30;1.00
48575;DHT22;34352;51.084;3.712;2023-06-14T11:25:26;38.50;1.00
48575;DHT22;34352;51.084;3.712;2023-06-14T11:27:54;39.00;1.00
48575;DHT22;34352;51.084;3.712;2023-06-14T11:30:21;39.50;1.00
48575;DHT22;34352;51.084;3.712;2023-06-14T11:32:51;39.70;1.00
48575;DHT22;34352;51.084;3.712;2023-06-14T11:35:18;38.80;1.00
48575;DHT22;34352;51.084;3.712;2023-06-14T11:37:45;37.30;1.00
48575;DHT22;34352;51.084;3.712;2023-06-14T11:40:11;38.10;1.00
48575;DHT22;34352;51.084;3.712;2023-06-14T11:42:39;39.00;1.00
48575;DHT22;34352;51.084;3.712;2023-06-14T11:45:09;39.70;1.00
48575;DHT22;34352;51.084;3.712;2023-06-14T11:47:39;40.20;1.00
48575;DHT22;34352;51.084;3.712;2023-06-14T11:50:09;39.80;1.00
48575;DHT22;34352;51.084;3.712;2023-06-14T11:52:37;40.50;1.00
48575;DHT22;34352;51.084;3.712;2023-06-14T11:55:03;39.70;1.00
48575;DHT22;34352;51.084;3.712;2023-06-14T11:57:35;39.30;1.00
48575;DHT22;34352;51.084;3.712;2023-06-14T12:00:07;38.60;1.00
48575;DHT22;34352;51.084;3.712;2023-06-14T12:02:37;38.90;1.00
48575;DHT22;34352;51.084;3.712;2023-06-14T12:05:07;39.60;1.00
48575;DHT22;34352;51.084;3.712;2023-06-14T12:07:37;39.00;1.00
48575;DHT22;34352;51.084;3.712;2023-06-14T12:10:06;39.80;1.00
48575;DHT22;34352;51.084;3.712;2023-06-14T12:12:39;39.90;1.00
48575;DHT22;34352;51.084;3.712;2023-06-14T12:15:06;39.90;1.00
48575;DHT22;34352;51.084;3.712;2023-06-14T12:17:34;39.30;1.00
48575;DHT22;34352;51.084;3.712;2023-06-14T12:20:08;39.70;1.00
48575;DHT22;34352;51.084;3.712;2023-06-14T12:22:53;39.40;1.00
48575;DHT22;34352;51.084;3.712;2023-06-14T12:25:37;39.50;1.00
48575;DHT22;34352;51.084;3.712;2023-06-14T12:28:08;39.00;1.00
48575;DHT22;34352;51.084;3.712;2023-06-14T12:30:40;38.10;1.00
48575;DHT22;34352;51.084;3.712;2023-06-14T12:33:05;37.20;1.00
48575;DHT22;34352;51.084;3.712;2023-06-14T12:35:32;37.00;1.00
48575;DHT22;34352;51.084;3.712;2023-06-14T12:37:59;37.20;1.00
48575;DHT22;34352;51.084;3.712;2023-06-14T12:40:25;37.60;1.00
48575;DHT22;34352;51.084;3.712;2023-06-14T12:42:51;38.30;1.00
48575;DHT22;34352;51.084;3.712;2023-06-14T12:45:18;38.10;1.00
48575;DHT22;34352;51.084;3.712;2023-06-14T12:47:44;38.00;1.00
48575;DHT22;34352;51.084;3.712;2023-06-14T12:50:10;38.50;1.00
48575;DHT22;34352;51.084;3.712;2023-06-14T12:52:36;38.50;1.00
48575;DHT22;34352;51.084;3.712;2023-06-14T12:55:05;38.80;1.00
48575;DHT22;34352;51.084;3.712;2023-06-14T12:57:32;38.70;1.00
48575;DHT22;34352;51.084;3.712;2023-06-14T12:59:59;38.50;1.00
48575;DHT22;34352;51.084;3.712;2023-06-14T13:02:25;38.50;1.00
48575;DHT22;34352;51.084;3.712;2023-06-14T13:04:51;39.10;1.00
48575;DHT22;34352;51.084;3.712;2023-06-14T13:07:17;37.90;1.00
48575;DHT22;34352;51.084;3.712;2023-06-14T13:09:43;38.00;1.00
48575;DHT22;34352;51.084;3.712;2023-06-14T13:12:10;38.20;1.00
48575;DHT22;34352;51.084;3.712;2023-06-14T13:14:37;38.30;1.00
48575;DHT22;34352;51.084;3.712;2023-06-14T13:17:03;38.20;1.00
48575;DHT22;34352;51.084;3.712;2023-06-14T13:19:29;37.90;1.00
48575;DHT22;34352;51.084;3.712;2023-06-14T13:21:55;37.80;1.00
48575;DHT22;34352;51.084;3.712;2023-06-14T13:24:24;37.50;1.00
48575;DHT22;34352;51.084;3.712;2023-06-14T13:26:54;37.40;1.00
48575;DHT22;34352;51.084;3.712;2023-06-14T13:29:19;37.70;1.00
48575;DHT22;34352;51.084;3.712;2023-06-14T13:31:45;37.40;1.00
48575;DHT22;34352;51.084;3.712;2023-06-14T13:34:11;37.30;1.00
48575;DHT22;34352;51.084;3.712;2023-06-14T13:36:36;37.10;1.00
48575;DHT22;34352;51.084;3.712;2023-06-14T13:39:02;36.40;1.00
48575;DHT22;34352;51.084;3.712;2023-06-14T13:41:28;35.20;1.00
48575;DHT22;34352;51.084;3.712;2023-06-14T13:44:00;35.40;1.00
48575;DHT22;34352;51.084;3.712;2023-06-14T13:46:26;36.10;1.00
48575;DHT22;34352;51.084;3.712;2023-06-14T13:48:53;36.30;1.00
48575;DHT22;34352;51.084;3.712;2023-06-14T13:51:19;35.70;1.00
48575;DHT22;34352;51.084;3.712;2023-06-14T13:53:49;35.60;1.00
48575;DHT22;34352;51.084;3.712;2023-06-14T13:56:17;35.00;1.00
48575;DHT22;34352;51.084;3.712;2023-06-14T13:58:43;35.30;1.00
48575;DHT22;34352;51.084;3.712;2023-06-14T14:01:10;35.40;1.00
48575;DHT22;34352;51.084;3.712;2023-06-14T14:03:37;35.00;1.00
48575;DHT22;34352;51.084;3.712;2023-06-14T14:06:04;35.00;1.00
48575;DHT22;34352;51.084;3.712;2023-06-14T14:08:30;34.50;1.00
48575;DHT22;34352;51.084;3.712;2023-06-14T14:10:56;33.60;1.00
48575;DHT22;34352;51.084;3.712;2023-06-14T14:13:22;33.00;1.00
48575;DHT22;34352;51.084;3.712;2023-06-14T14:15:49;32.50;1.00
48575;DHT22;34352;51.084;3.712;2023-06-14T14:18:15;32.30;1.00
48575;DHT22;34352;51.084;3.712;2023-06-14T14:20:41;32.20;1.00
48575;DHT22;34352;51.084;3.712;2023-06-14T14:23:08;32.00;1.00
48575;DHT22;34352;51.084;3.712;2023-06-14T14:25:34;31.50;1.00
48575;DHT22;34352;51.084;3.712;2023-06-14T14:28:01;31.40;1.00
48575;DHT22;34352;51.084;3.712;2023-06-14T14:30:26;31.00;1.00
48575;DHT22;34352;51.084;3.712;2023-06-14T14:32:53;31.20;1.00
48575;DHT22;34352;51.084;3.712;2023-06-14T14:35:19;30.80;1.00
48575;DHT22;34352;51.084;3.712;2023-06-14T14:37:45;30.30;1.00
48575;DHT22;34352;51.084;3.712;2023-06-14T14:40:11;30.50;1.00
48575;DHT22;34352;51.084;3.712;2023-06-14T14:42:37;30.60;1.00
48575;DHT22;34352;51.084;3.712;2023-06-14T14:45:03;30.50;1.00
48575;DHT22;34352;51.084;3.712;2023-06-14T14:47:30;30.70;1.00
48575;DHT22;34352;51.084;3.712;2023-06-14T14:49:56;30.60;1.00
48575;DHT22;34352;51.084;3.712;2023-06-14T14:52:23;30.40;1.00
48575;DHT22;34352;51.084;3.712;2023-06-14T14:54:50;30.60;1.00
48575;DHT22;34352;51.084;3.712;2023-06-14T14:57:15;30.60;1.00
48575;DHT22;34352;51.084;3.712;2023-06-14T14:59:42;30.80;1.00
48575;DHT22;34352;51.084;3.712;2023-06-14T15:02:08;30.90;1.00
48575;DHT22;34352;51.084;3.712;2023-06-14T15:04:35;30.70;1.00
48575;DHT22;34352;51.084;3.712;2023-06-14T15:07:00;30.50;1.00
48575;DHT22;34352;51.084;3.712;2023-06-14T15:09:28;30.60;1.00
48575;DHT22;34352;51.084;3.712;2023-06-14T15:11:54;30.70;1.00
48575;DHT22;34352;51.084;3.712;2023-06-14T15:14:20;30.60;1.00
48575;DHT22;34352;51.084;3.712;2023-06-14T15:16:46;30.50;1.00
48575;DHT22;34352;51.084;3.712;2023-06-14T15:19:12;30.10;1.00
48575;DHT22;34352;51.084;3.712;2023-06-14T15:21:37;29.90;1.00
48575;DHT22;34352;51.084;3.712;2023-06-14T15:24:03;30.20;1.00
48575;DHT22;34352;51.084;3.712;2023-06-14T15:26:29;30.10;1.00
48575;DHT22;34352;51.084;3.712;2023-06-14T15:28:55;30.10;1.00
48575;DHT22;34352;51.084;3.712;2023-06-14T15:31:21;30.20;1.00
48575;DHT22;34352;51.084;3.712;2023-06-14T15:33:48;30.20;1.00
48575;DHT22;34352;51.084;3.712;2023-06-14T15:36:15;30.00;1.00
48575;DHT22;34352;51.084;3.712;2023-06-14T15:38:40;29.90;1.00
48575;DHT22;34352;51.084;3.712;2023-06-14T15:41:07;30.00;1.00
48575;DHT22;34352;51.084;3.712;2023-06-14T15:43:34;29.90;1.00
48575;DHT22;34352;51.084;3.712;2023-06-14T15:46:01;29.80;1.00
48575;DHT22;34352;51.084;3.712;2023-06-14T15:48:26;29.60;1.00
48575;DHT22;34352;51.084;3.712;2023-06-14T15:50:52;29.40;1.00
48575;DHT22;34352;51.084;3.712;2023-06-14T15:53:19;29.30;1.00
48575;DHT22;34352;51.084;3.712;2023-06-14T15:55:46;29.30;1.00
48575;DHT22;34352;51.084;3.712;2023-06-14T15:58:12;29.40;1.00
48575;DHT22;34352;51.084;3.712;2023-06-14T16:00:40;29.50;1.00
48575;DHT22;34352;51.084;3.712;2023-06-14T16:03:06;29.50;1.00